createdAt,value
2018-08-25T00:00:17.306Z,63.21
2018-08-25T00:01:17.536Z,63.3
2018-08-25T00:02:17.479Z,63.27
2018-08-25T00:03:17.419Z,63.29
2018-08-25T00:04:17.507Z,63.14
2018-08-25T00:05:17.342Z,63.2
2018-08-25T00:06:17.495Z,63.17
2018-08-25T00:07:17.740Z,63.18
2018-08-25T00:08:17.430Z,63.11
2018-08-25T00:09:17.690Z,63.15
2018-08-25T00:10:17.476Z,63.26
2018-08-25T00:11:17.361Z,63.23
2018-08-25T00:12:17.461Z,63.24
2018-08-25T00:13:17.281Z,63.32
2018-08-25T00:14:17.494Z,63.22
2018-08-25T00:15:17.326Z,63.15
2018-08-25T00:16:17.376Z,63.32
2018-08-25T00:17:17.393Z,63.08
2018-08-25T00:18:17.340Z,63.12
2018-08-25T00:19:17.470Z,63.3
2018-08-25T00:20:17.656Z,63.19
2018-08-25T00:21:17.733Z,63.14
2018-08-25T00:22:17.355Z,63.16
2018-08-25T00:23:17.369Z,63.24
2018-08-25T00:24:17.275Z,63.11
2018-08-25T00:25:17.494Z,63.11
2018-08-25T00:26:17.837Z,63.19
2018-08-25T00:27:17.723Z,63.09
2018-08-25T00:28:17.875Z,63.12
2018-08-25T00:29:17.308Z,63.16
2018-08-25T00:30:17.411Z,63.14
2018-08-25T00:31:17.564Z,63.19
2018-08-25T00:32:17.554Z,63.19
2018-08-25T00:33:17.430Z,63.24
2018-08-25T00:34:17.413Z,63.2
2018-08-25T00:35:17.307Z,63.06
2018-08-25T00:36:17.509Z,63.13
2018-08-25T00:37:17.475Z,63.22
2018-08-25T00:38:17.705Z,63.02
2018-08-25T00:39:17.398Z,63.02
2018-08-25T00:40:17.397Z,63.1
2018-08-25T00:41:17.379Z,63.2
2018-08-25T00:42:17.361Z,63.03
2018-08-25T00:43:17.354Z,63.24
2018-08-25T00:44:17.272Z,63.05
2018-08-25T00:45:17.530Z,63.04
2018-08-25T00:46:17.415Z,63.11
2018-08-25T00:47:17.792Z,63.03
2018-08-25T00:48:17.464Z,63.16
2018-08-25T00:49:17.365Z,63.17
2018-08-25T00:50:17.351Z,63.16
2018-08-25T00:51:17.378Z,63.17
2018-08-25T00:52:17.356Z,63.21
2018-08-25T00:53:17.281Z,63.12
2018-08-25T00:54:17.460Z,62.96
2018-08-25T00:55:17.387Z,63.13
2018-08-25T00:56:17.445Z,63.13
2018-08-25T00:57:17.305Z,63.1
2018-08-25T00:58:17.709Z,63.14
2018-08-25T00:59:17.307Z,63.1
2018-08-25T01:00:17.449Z,63.14
2018-08-25T01:01:17.559Z,63.1
2018-08-25T01:02:17.311Z,63.18
2018-08-25T01:03:17.616Z,63.21
2018-08-25T01:04:17.623Z,63.11
2018-08-25T01:05:17.824Z,63.19
2018-08-25T01:06:17.338Z,63.13
2018-08-25T01:07:17.612Z,63.22
2018-08-25T01:08:17.331Z,63.18
2018-08-25T01:09:17.390Z,63.07
2018-08-25T01:10:17.937Z,63.2
2018-08-25T01:11:17.355Z,63.1
2018-08-25T01:12:17.622Z,63.18
2018-08-25T01:13:17.487Z,63.16
2018-08-25T01:14:17.402Z,63.18
2018-08-25T01:15:17.517Z,63.14
2018-08-25T01:16:17.323Z,63.19
2018-08-25T01:17:17.723Z,63.13
2018-08-25T01:18:17.349Z,63.11
2018-08-25T01:19:17.296Z,63.08
2018-08-25T01:20:17.572Z,63.16
2018-08-25T01:21:17.255Z,63.03
2018-08-25T01:22:17.671Z,63.19
2018-08-25T01:23:17.520Z,63.21
2018-08-25T01:24:17.487Z,63.14
2018-08-25T01:25:17.337Z,63.14
2018-08-25T01:26:17.439Z,63.08
2018-08-25T01:27:17.583Z,63.11
2018-08-25T01:28:17.635Z,63.14
2018-08-25T01:29:17.322Z,63.1
2018-08-25T01:30:17.448Z,63.08
2018-08-25T01:31:17.441Z,63.11
2018-08-25T01:32:17.441Z,63.13
2018-08-25T01:33:17.256Z,63.03
2018-08-25T01:34:17.447Z,63.14
2018-08-25T01:35:17.412Z,63.13
2018-08-25T01:36:17.498Z,63.17
2018-08-25T01:37:17.472Z,63.07
2018-08-25T01:38:17.278Z,63.04
2018-08-25T01:39:17.261Z,63.15
2018-08-25T01:40:17.326Z,63.06
2018-08-25T01:41:17.158Z,63.09
2018-08-25T01:42:17.724Z,63.14
2018-08-25T01:43:17.343Z,63.16
2018-08-25T01:44:17.302Z,63.13
2018-08-25T01:45:17.288Z,63.22
2018-08-25T01:46:17.291Z,63.17
2018-08-25T01:47:17.539Z,63.08
2018-08-25T01:48:17.510Z,63.12
2018-08-25T01:49:17.263Z,63.23
2018-08-25T01:50:17.401Z,63.24
2018-08-25T01:51:17.528Z,63.16
2018-08-25T01:52:17.115Z,63.19
2018-08-25T01:53:17.608Z,63.08
2018-08-25T01:54:17.396Z,63.05
2018-08-25T01:55:17.687Z,63.03
2018-08-25T01:56:17.342Z,63.1
2018-08-25T01:57:17.462Z,63.2
2018-08-25T01:58:17.500Z,63.28
2018-08-25T01:59:17.491Z,63.06
2018-08-25T02:00:17.266Z,63.15
2018-08-25T02:01:17.456Z,63.09
2018-08-25T02:02:17.547Z,63.11
2018-08-25T02:03:17.767Z,63.04
2018-08-25T02:04:17.474Z,63.12
2018-08-25T02:05:17.286Z,63.14
2018-08-25T02:06:17.535Z,63.12
2018-08-25T02:07:17.285Z,63.09
2018-08-25T02:08:17.392Z,63.13
2018-08-25T02:09:17.693Z,63.13
2018-08-25T02:10:17.615Z,63.24
2018-08-25T02:11:17.305Z,63.15
2018-08-25T02:12:17.502Z,63.21
2018-08-25T02:13:17.399Z,63.08
2018-08-25T02:14:17.423Z,63.17
2018-08-25T02:15:17.681Z,62.95
2018-08-25T02:16:17.270Z,63.17
2018-08-25T02:17:17.483Z,63.13
2018-08-25T02:18:17.216Z,63.29
2018-08-25T02:19:17.374Z,63.2
2018-08-25T02:20:17.304Z,63.07
2018-08-25T02:21:17.447Z,63.07
2018-08-25T02:22:17.709Z,63.15
2018-08-25T02:23:17.211Z,63.18
2018-08-25T02:24:17.437Z,63.18
2018-08-25T02:25:17.298Z,63.25
2018-08-25T02:26:17.449Z,63.1
2018-08-25T02:27:17.419Z,63.13
2018-08-25T02:28:18.195Z,63.06
2018-08-25T02:29:17.547Z,63.15
2018-08-25T02:30:17.212Z,63.14
2018-08-25T02:31:17.437Z,63.37
2018-08-25T02:32:17.262Z,63.07
2018-08-25T02:33:17.671Z,63.18
2018-08-25T02:34:17.652Z,63.16
2018-08-25T02:35:17.932Z,63.17
2018-08-25T02:36:17.326Z,63.05
2018-08-25T02:37:17.293Z,63.19
2018-08-25T02:38:17.411Z,63.04
2018-08-25T02:39:17.473Z,63.07
2018-08-25T02:40:17.429Z,62.94
2018-08-25T02:41:17.396Z,63.17
2018-08-25T02:42:17.309Z,63.2
2018-08-25T02:43:17.499Z,63.09
2018-08-25T02:44:17.255Z,63.18
2018-08-25T02:45:17.245Z,63.13
2018-08-25T02:46:17.234Z,63.13
2018-08-25T02:47:17.342Z,63.15
2018-08-25T02:48:17.427Z,63.17
2018-08-25T02:49:17.501Z,63.23
2018-08-25T02:50:17.329Z,63.24
2018-08-25T02:51:17.459Z,63.14
2018-08-25T02:52:17.375Z,63.15
2018-08-25T02:53:17.302Z,63.04
2018-08-25T02:54:17.367Z,63.07
2018-08-25T02:55:17.503Z,63.15
2018-08-25T02:56:17.473Z,63.2
2018-08-25T02:57:17.197Z,63.08
2018-08-25T02:58:17.284Z,63.23
2018-08-25T02:59:17.342Z,62.95
2018-08-25T03:00:17.496Z,63.1
2018-08-25T03:01:17.440Z,63.04
2018-08-25T03:02:17.422Z,63.05
2018-08-25T03:03:17.678Z,63.08
2018-08-25T03:04:17.496Z,63.04
2018-08-25T03:05:17.244Z,63.14
2018-08-25T03:06:17.596Z,63.05
2018-08-25T03:07:17.278Z,63.04
2018-08-25T03:08:17.438Z,63.02
2018-08-25T03:09:17.617Z,63.03
2018-08-25T03:10:17.281Z,63.07
2018-08-25T03:11:17.363Z,63.12
2018-08-25T03:12:17.277Z,63.16
2018-08-25T03:13:17.373Z,63.01
2018-08-25T03:14:17.302Z,63.12
2018-08-25T03:15:17.398Z,63.11
2018-08-25T03:16:17.525Z,63.1
2018-08-25T03:17:17.700Z,63.07
2018-08-25T03:18:17.224Z,63
2018-08-25T03:19:17.393Z,63.05
2018-08-25T03:20:17.450Z,63.06
2018-08-25T03:21:17.234Z,63.1
2018-08-25T03:22:17.452Z,63.21
2018-08-25T03:23:17.580Z,63.1
2018-08-25T03:24:17.500Z,63.07
2018-08-25T03:25:17.498Z,63.03
2018-08-25T03:26:17.348Z,63.16
2018-08-25T03:27:17.547Z,62.96
2018-08-25T03:28:17.485Z,63.06
2018-08-25T03:29:17.384Z,63.14
2018-08-25T03:30:17.351Z,63.07
2018-08-25T03:31:17.818Z,63.05
2018-08-25T03:32:17.455Z,63.17
2018-08-25T03:33:17.451Z,62.99
2018-08-25T03:34:17.364Z,63.05
2018-08-25T03:35:17.435Z,63
2018-08-25T03:36:17.693Z,62.99
2018-08-25T03:37:17.619Z,63.03
2018-08-25T03:38:17.495Z,63.05
2018-08-25T03:39:17.430Z,63.11
2018-08-25T03:40:17.381Z,63
2018-08-25T03:41:17.390Z,63.06
2018-08-25T03:42:17.395Z,62.99
2018-08-25T03:43:17.532Z,63.05
2018-08-25T03:44:17.734Z,63.09
2018-08-25T03:45:17.501Z,63.06
2018-08-25T03:46:17.382Z,63.01
2018-08-25T03:47:17.512Z,63
2018-08-25T03:48:17.377Z,62.99
2018-08-25T03:49:17.460Z,63.06
2018-08-25T03:50:17.495Z,63.08
2018-08-25T03:51:17.492Z,62.97
2018-08-25T03:52:17.411Z,62.97
2018-08-25T03:53:17.441Z,62.91
2018-08-25T03:54:17.704Z,63.01
2018-08-25T03:55:17.279Z,63.05
2018-08-25T03:56:17.331Z,62.91
2018-08-25T03:57:17.303Z,63.05
2018-08-25T03:58:17.650Z,63.07
2018-08-25T03:59:17.344Z,63.03
2018-08-25T04:00:17.581Z,62.98
2018-08-25T04:01:17.503Z,62.99
2018-08-25T04:02:17.438Z,62.87
2018-08-25T04:03:17.343Z,62.94
2018-08-25T04:04:17.354Z,62.94
2018-08-25T04:05:17.437Z,63.01
2018-08-25T04:06:17.312Z,62.97
2018-08-25T04:07:17.307Z,62.91
2018-08-25T04:08:17.340Z,63.03
2018-08-25T04:09:17.535Z,62.96
2018-08-25T04:10:17.383Z,62.93
2018-08-25T04:11:17.252Z,62.99
2018-08-25T04:12:17.358Z,62.99
2018-08-25T04:13:17.370Z,63.02
2018-08-25T04:14:17.501Z,62.92
2018-08-25T04:15:17.299Z,63
2018-08-25T04:16:17.443Z,62.99
2018-08-25T04:17:17.424Z,62.94
2018-08-25T04:18:17.527Z,62.93
2018-08-25T04:19:17.512Z,63
2018-08-25T04:20:17.405Z,62.84
2018-08-25T04:21:17.406Z,63
2018-08-25T04:22:17.452Z,62.93
2018-08-25T04:23:17.364Z,62.88
2018-08-25T04:24:17.297Z,62.98
2018-08-25T04:25:17.352Z,63.01
2018-08-25T04:26:17.405Z,62.96
2018-08-25T04:27:17.438Z,62.84
2018-08-25T04:28:17.805Z,62.96
2018-08-25T04:29:17.290Z,62.95
2018-08-25T04:30:17.448Z,62.85
2018-08-25T04:31:17.227Z,62.98
2018-08-25T04:32:17.287Z,63.03
2018-08-25T04:33:17.420Z,63.01
2018-08-25T04:34:17.288Z,62.97
2018-08-25T04:35:17.493Z,62.98
2018-08-25T04:36:17.237Z,62.92
2018-08-25T04:37:17.366Z,63.04
2018-08-25T04:38:17.563Z,62.93
2018-08-25T04:39:17.479Z,62.96
2018-08-25T04:40:17.454Z,62.88
2018-08-25T04:41:17.659Z,62.98
2018-08-25T04:42:17.375Z,62.93
2018-08-25T04:43:17.358Z,62.9
2018-08-25T04:44:17.304Z,62.89
2018-08-25T04:45:17.342Z,62.97
2018-08-25T04:46:17.210Z,63.01
2018-08-25T04:47:17.183Z,62.96
2018-08-25T04:48:17.517Z,62.94
2018-08-25T04:49:17.455Z,63.07
2018-08-25T04:50:17.486Z,62.92
2018-08-25T04:51:17.303Z,62.97
2018-08-25T04:52:17.980Z,63.07
2018-08-25T04:53:17.304Z,62.92
2018-08-25T04:54:17.392Z,63.01
2018-08-25T04:55:17.301Z,63.07
2018-08-25T04:56:17.385Z,62.93
2018-08-25T04:57:17.682Z,63.04
2018-08-25T04:58:17.290Z,62.98
2018-08-25T04:59:17.334Z,62.93
2018-08-25T05:00:17.194Z,62.89
2018-08-25T05:01:17.463Z,63.11
2018-08-25T05:02:17.178Z,62.92
2018-08-25T05:03:17.194Z,63.04
2018-08-25T05:04:17.302Z,62.93
2018-08-25T05:05:17.359Z,63.15
2018-08-25T05:06:17.717Z,62.97
2018-08-25T05:07:17.545Z,62.96
2018-08-25T05:08:17.419Z,63.05
2018-08-25T05:09:17.581Z,62.97
2018-08-25T05:10:17.581Z,62.97
2018-08-25T05:11:17.494Z,63.02
2018-08-25T05:12:17.862Z,63.02
2018-08-25T05:13:17.292Z,63.11
2018-08-25T05:14:17.445Z,63.1
2018-08-25T05:15:17.361Z,63.08
2018-08-25T05:16:17.274Z,63.09
2018-08-25T05:17:17.168Z,63.06
2018-08-25T05:18:17.337Z,63.19
2018-08-25T05:19:17.356Z,63.09
2018-08-25T05:20:17.380Z,63.16
2018-08-25T05:21:17.423Z,62.99
2018-08-25T05:22:17.443Z,63.09
2018-08-25T05:23:17.359Z,63.13
2018-08-25T05:24:17.373Z,63.18
2018-08-25T05:25:17.204Z,63.11
2018-08-25T05:26:17.375Z,63.21
2018-08-25T05:27:17.282Z,63.14
2018-08-25T05:28:17.134Z,63.09
2018-08-25T05:29:17.384Z,62.98
2018-08-25T05:30:17.230Z,63.1
2018-08-25T05:31:17.472Z,63.11
2018-08-25T05:32:17.195Z,63.1
2018-08-25T05:33:17.412Z,63.1
2018-08-25T05:34:17.272Z,63.17
2018-08-25T05:35:17.326Z,63.11
2018-08-25T05:36:17.285Z,63.16
2018-08-25T05:37:17.244Z,63.23
2018-08-25T05:38:17.361Z,63.13
2018-08-25T05:39:17.206Z,63.06
2018-08-25T05:40:17.409Z,63.13
2018-08-25T05:41:17.168Z,63.18
2018-08-25T05:42:17.311Z,63.24
2018-08-25T05:43:17.269Z,63.23
2018-08-25T05:44:17.618Z,63.21
2018-08-25T05:45:17.322Z,63.17
2018-08-25T05:46:17.267Z,63.24
2018-08-25T05:47:17.230Z,63.25
2018-08-25T05:48:17.353Z,63.19
2018-08-25T05:49:17.421Z,63.33
2018-08-25T05:50:17.145Z,63.08
2018-08-25T05:51:17.224Z,63.24
2018-08-25T05:52:17.320Z,63.15
2018-08-25T05:53:17.494Z,63.11
2018-08-25T05:54:17.712Z,63.07
2018-08-25T05:55:17.418Z,63.39
2018-08-25T05:56:17.156Z,63.18
2018-08-25T05:57:17.254Z,63.13
2018-08-25T05:58:17.240Z,63.2
2018-08-25T05:59:17.341Z,63.29
2018-08-25T06:00:17.294Z,63.2
2018-08-25T06:01:17.519Z,63.18
2018-08-25T06:02:17.451Z,63.13
2018-08-25T06:03:17.242Z,63.23
2018-08-25T06:04:17.431Z,63.19
2018-08-25T06:05:17.250Z,63.23
2018-08-25T06:06:17.458Z,63.22
2018-08-25T06:07:17.460Z,63.33
2018-08-25T06:08:17.323Z,63.22
2018-08-25T06:09:17.335Z,63.14
2018-08-25T06:10:17.345Z,63.15
2018-08-25T06:11:17.364Z,63.17
2018-08-25T06:12:17.263Z,63.14
2018-08-25T06:13:17.308Z,63.04
2018-08-25T06:14:17.431Z,63.2
2018-08-25T06:15:17.435Z,63.18
2018-08-25T06:16:17.409Z,63.2
2018-08-25T06:17:17.245Z,63.14
2018-08-25T06:18:17.421Z,63.31
2018-08-25T06:19:17.531Z,63.16
2018-08-25T06:20:17.297Z,63.2
2018-08-25T06:21:17.173Z,63.36
2018-08-25T06:22:17.197Z,63.15
2018-08-25T06:23:17.206Z,63.32
2018-08-25T06:24:17.204Z,63.06
2018-08-25T06:25:17.245Z,63.15
2018-08-25T06:26:17.553Z,63.03
2018-08-25T06:27:17.458Z,63.05
2018-08-25T06:28:17.367Z,62.99
2018-08-25T06:29:17.297Z,63
2018-08-25T06:30:17.520Z,62.98
2018-08-25T06:31:17.647Z,62.99
2018-08-25T06:32:17.461Z,63.12
2018-08-25T06:33:17.257Z,63.11
2018-08-25T06:34:17.166Z,63.1
2018-08-25T06:35:17.157Z,63.13
2018-08-25T06:36:17.425Z,63.22
2018-08-25T06:37:17.528Z,63.12
2018-08-25T06:38:17.340Z,63.08
2018-08-25T06:39:17.211Z,63.16
2018-08-25T06:40:17.441Z,63.06
2018-08-25T06:41:17.287Z,63.12
2018-08-25T06:42:17.285Z,63.05
2018-08-25T06:43:17.337Z,63.08
2018-08-25T06:44:17.277Z,63.14
2018-08-25T06:45:17.381Z,63.05
2018-08-25T06:46:17.311Z,63.08
2018-08-25T06:47:17.216Z,62.97
2018-08-25T06:48:17.267Z,63.15
2018-08-25T06:49:17.370Z,63.09
2018-08-25T06:50:17.215Z,63.18
2018-08-25T06:51:17.375Z,63.03
2018-08-25T06:52:17.300Z,63.19
2018-08-25T06:53:17.360Z,63.15
2018-08-25T06:54:17.319Z,63.07
2018-08-25T06:55:17.176Z,63.13
2018-08-25T06:56:17.461Z,63.14
2018-08-25T06:57:17.340Z,63.01
2018-08-25T06:58:17.171Z,63.09
2018-08-25T06:59:17.313Z,62.98
2018-08-25T07:00:17.564Z,63.05
2018-08-25T07:01:17.362Z,63.06
2018-08-25T07:02:17.602Z,63.13
2018-08-25T07:03:17.366Z,63.1
2018-08-25T07:04:17.375Z,63.06
2018-08-25T07:05:17.397Z,63.11
2018-08-25T07:06:17.494Z,63.16
2018-08-25T07:07:17.307Z,63.03
2018-08-25T07:08:17.371Z,63.13
2018-08-25T07:09:17.236Z,62.91
2018-08-25T07:10:17.482Z,63.06
2018-08-25T07:11:17.342Z,63.12
2018-08-25T07:12:17.297Z,63.16
2018-08-25T07:13:17.342Z,63.09
2018-08-25T07:14:17.522Z,63.06
2018-08-25T07:15:17.653Z,63.18
2018-08-25T07:16:17.358Z,63.15
2018-08-25T07:17:17.200Z,62.98
2018-08-25T07:18:17.226Z,63.08
2018-08-25T07:19:17.365Z,63.13
2018-08-25T07:20:17.474Z,63.01
2018-08-25T07:21:17.284Z,63.06
2018-08-25T07:22:17.297Z,63.05
2018-08-25T07:23:17.306Z,63.03
2018-08-25T07:24:17.316Z,63.16
2018-08-25T07:25:17.344Z,63.05
2018-08-25T07:26:17.503Z,63.06
2018-08-25T07:27:17.352Z,63.07
2018-08-25T07:28:17.479Z,63.12
2018-08-25T07:29:17.363Z,63.24
2018-08-25T07:30:17.461Z,62.65
2018-08-25T07:31:17.254Z,58.04
2018-08-25T07:32:17.846Z,57.96
2018-08-25T07:33:17.269Z,58.06
2018-08-25T07:34:17.495Z,57.83
2018-08-25T07:35:17.580Z,58.34
2018-08-25T07:36:17.252Z,57.68
2018-08-25T07:37:17.267Z,57.64
2018-08-25T07:38:17.438Z,57.16
2018-08-25T07:39:17.352Z,57.29
2018-08-25T07:40:17.233Z,57.72
2018-08-25T07:41:17.323Z,57.58
2018-08-25T07:42:17.325Z,57.57
2018-08-25T07:43:17.209Z,57.75
2018-08-25T07:44:17.271Z,57.5
2018-08-25T07:45:17.488Z,57.69
2018-08-25T07:46:17.243Z,58.08
2018-08-25T07:47:17.735Z,57.67
2018-08-25T07:48:17.273Z,57.92
2018-08-25T07:49:17.374Z,57.7
2018-08-25T07:50:17.411Z,57.87
2018-08-25T07:51:17.361Z,57.76
2018-08-25T07:52:17.346Z,58.24
2018-08-25T07:53:17.229Z,58.27
2018-08-25T07:54:17.409Z,58.33
2018-08-25T07:55:17.391Z,58.28
2018-08-25T07:56:17.423Z,57.69
2018-08-25T07:57:17.517Z,58.2
2018-08-25T07:58:17.400Z,58.23
2018-08-25T07:59:17.982Z,58.31
2018-08-25T08:00:17.381Z,58.62
2018-08-25T08:01:17.460Z,58.66
2018-08-25T08:02:17.390Z,58.48
2018-08-25T08:03:17.478Z,58.14
2018-08-25T08:04:17.143Z,58.17
2018-08-25T08:05:17.355Z,58.53
2018-08-25T08:06:17.356Z,58.54
2018-08-25T08:07:17.333Z,58.59
2018-08-25T08:08:17.328Z,58.67
2018-08-25T08:09:17.235Z,59.01
2018-08-25T08:10:17.435Z,58.54
2018-08-25T08:11:17.285Z,58.85
2018-08-25T08:12:17.558Z,59.04
2018-08-25T08:13:17.218Z,59.13
2018-08-25T08:14:17.284Z,59.64
2018-08-25T08:15:17.213Z,59.24
2018-08-25T08:16:17.228Z,59.38
2018-08-25T08:17:17.810Z,59.6
2018-08-25T08:18:17.365Z,59.2
2018-08-25T08:19:17.256Z,59.32
2018-08-25T08:20:17.477Z,59.35
2018-08-25T08:21:17.287Z,58.89
2018-08-25T08:22:17.423Z,58.58
2018-08-25T08:23:17.205Z,58.86
2018-08-25T08:24:17.264Z,58.46
2018-08-25T08:25:17.394Z,58.63
2018-08-25T08:26:17.299Z,58.68
2018-08-25T08:27:17.346Z,59.2
2018-08-25T08:28:17.692Z,58.61
2018-08-25T08:29:17.489Z,58.99
2018-08-25T08:30:17.267Z,58.85
2018-08-25T08:31:17.534Z,59.07
2018-08-25T08:32:17.324Z,59.32
2018-08-25T08:33:17.407Z,59.16
2018-08-25T08:34:17.433Z,59.6
2018-08-25T08:35:17.183Z,59.09
2018-08-25T08:36:17.521Z,59.6
2018-08-25T08:37:17.296Z,59.54
2018-08-25T08:38:17.507Z,59.53
2018-08-25T08:39:17.563Z,60.09
2018-08-25T08:40:17.376Z,59.98
2018-08-25T08:41:17.478Z,60.08
2018-08-25T08:42:17.809Z,60.21
2018-08-25T08:43:17.574Z,60.55
2018-08-25T08:44:17.357Z,60.73
2018-08-25T08:45:17.439Z,60.84
2018-08-25T08:46:17.201Z,60.67
2018-08-25T08:47:17.260Z,60.98
2018-08-25T08:48:17.313Z,60.77
2018-08-25T08:49:17.137Z,60.59
2018-08-25T08:50:17.459Z,60.41
2018-08-25T08:51:17.700Z,60.96
2018-08-25T08:52:17.242Z,60.89
2018-08-25T08:53:17.664Z,60.87
2018-08-25T08:54:17.424Z,60.72
2018-08-25T08:55:17.346Z,61.24
2018-08-25T08:56:17.534Z,61.34
2018-08-25T08:57:17.408Z,61.35
2018-08-25T08:58:17.507Z,61.41
2018-08-25T08:59:17.192Z,61.87
2018-08-25T09:00:17.431Z,61.94
2018-08-25T09:01:17.665Z,61.9
2018-08-25T09:02:17.360Z,61.79
2018-08-25T09:03:17.377Z,61.9
2018-08-25T09:04:17.323Z,61.87
2018-08-25T09:05:17.398Z,61.98
2018-08-25T09:06:17.352Z,61.53
2018-08-25T09:07:17.361Z,62
2018-08-25T09:08:17.472Z,61.59
2018-08-25T09:09:17.215Z,61.78
2018-08-25T09:10:17.175Z,61.83
2018-08-25T09:11:17.486Z,61.56
2018-08-25T09:12:17.299Z,61.43
2018-08-25T09:13:17.379Z,61.96
2018-08-25T09:14:17.123Z,61.76
2018-08-25T09:15:17.227Z,61.79
2018-08-25T09:16:17.279Z,61.4
2018-08-25T09:17:17.174Z,61.95
2018-08-25T09:18:17.172Z,61.82
2018-08-25T09:19:17.292Z,61.83
2018-08-25T09:20:17.256Z,61.71
2018-08-25T09:21:17.272Z,61.84
2018-08-25T09:22:17.283Z,61.7
2018-08-25T09:23:17.378Z,61.66
2018-08-25T09:24:17.329Z,61.74
2018-08-25T09:25:17.273Z,61.61
2018-08-25T09:26:17.359Z,61.59
2018-08-25T09:27:06.975Z,62.72
2018-08-25T09:28:07.007Z,61.59
2018-08-25T09:29:07.118Z,60.83
2018-08-25T09:30:07.148Z,60.43
2018-08-25T09:31:07.125Z,60.76
2018-08-25T09:32:07.076Z,60.46
2018-08-25T09:33:07.068Z,60.55
2018-08-25T09:34:06.874Z,60.28
2018-08-25T09:34:31.515Z,60.81
2018-08-25T09:35:50.712Z,60.29
2018-08-25T09:36:51.246Z,60.3
2018-08-25T09:37:50.644Z,60.08
2018-08-25T09:38:51.151Z,59.87
2018-08-25T09:39:50.652Z,60
2018-08-25T09:40:50.809Z,60.25
2018-08-25T09:41:51.031Z,60.32
2018-08-25T09:42:50.617Z,60.37
2018-08-25T09:43:50.662Z,60.36
2018-08-25T09:44:50.774Z,60.32
2018-08-25T09:45:50.722Z,60.91
2018-08-25T09:46:50.897Z,60.31
2018-08-25T09:47:50.968Z,60.15
2018-08-25T09:48:50.641Z,60.59
2018-08-25T09:49:50.773Z,60.27
2018-08-25T09:50:50.831Z,60.55
2018-08-25T09:51:51.011Z,60.46
2018-08-25T09:52:51.183Z,60.04
2018-08-25T10:13:12.497Z,63.16
2018-08-25T10:13:54.287Z,62.26
2018-08-25T10:14:54.401Z,62.47
2018-08-25T10:15:54.556Z,62.96
2018-08-25T10:16:54.862Z,63.57
2018-08-25T10:17:54.520Z,64.17
2018-08-25T10:18:50.981Z,63.44
2018-08-25T10:19:51.231Z,63.45
2018-08-25T10:20:50.896Z,63.9
2018-08-25T10:21:51.193Z,63.87
2018-08-25T10:22:51.292Z,63.86
2018-08-25T10:23:51.036Z,63.92
2018-08-25T10:24:51.128Z,63.76
2018-08-25T10:25:51.114Z,63.64
2018-08-25T10:26:50.842Z,63.44
2018-08-25T10:27:50.911Z,63.05
2018-08-25T10:28:51.217Z,63.11
2018-08-25T10:29:50.984Z,63.11
2018-08-25T10:30:50.997Z,62.93
2018-08-25T10:31:50.928Z,63.03
2018-08-25T10:32:50.836Z,62.63
2018-08-25T10:33:50.798Z,62.73
2018-08-25T10:34:51.313Z,62.47
2018-08-25T10:35:51.578Z,62.81
2018-08-25T10:36:51.474Z,62.65
2018-08-25T10:37:51.308Z,62.18
2018-08-25T10:38:51.267Z,62.35
2018-08-25T10:39:51.304Z,61.97
2018-08-25T10:40:51.305Z,61.74
2018-08-25T10:41:51.799Z,61.37
2018-08-25T10:42:51.397Z,61.63
2018-08-25T10:43:51.412Z,62.01
2018-08-25T10:44:51.396Z,61.68
2018-08-25T10:45:51.215Z,61.29
2018-08-25T10:46:51.536Z,61.65
2018-08-25T10:47:51.441Z,61.65
2018-08-25T10:48:51.435Z,61.27
2018-08-25T10:49:51.461Z,61.74
2018-08-25T10:50:51.447Z,61.39
2018-08-25T10:51:51.322Z,62.18
2018-08-25T10:52:51.425Z,62.04
2018-08-25T10:53:51.631Z,61.96
2018-08-25T10:54:51.612Z,61.31
2018-08-25T10:55:51.664Z,61.44
2018-08-25T10:56:15.639Z,61.3
2018-08-25T10:56:56.801Z,61.29
2018-08-25T10:57:56.747Z,61.27
2018-08-25T10:58:56.723Z,61.31
2018-08-25T10:59:57.114Z,61.31
2018-08-25T11:00:57.304Z,61.55
2018-08-25T11:01:56.920Z,61.24
2018-08-25T11:02:56.822Z,61.45
2018-08-25T11:03:56.960Z,61.65
2018-08-25T11:04:56.779Z,61.5
2018-08-25T11:05:57.217Z,61.93
2018-08-25T11:06:56.936Z,61.28
2018-08-25T11:07:56.791Z,61.23
2018-08-25T11:08:57.628Z,61.49
2018-08-25T11:09:56.834Z,61.55
2018-08-25T11:10:57.053Z,61.4
2018-08-25T11:11:56.876Z,61.29
2018-08-25T11:12:56.798Z,61.56
2018-08-25T11:13:56.789Z,61.39
2018-08-25T11:14:56.865Z,61.21
2018-08-25T11:15:56.955Z,61.31
2018-08-25T11:16:56.903Z,61.08
2018-08-25T11:17:56.772Z,61.06
2018-08-25T11:18:57.200Z,60.84
2018-08-25T11:19:56.969Z,61.18
2018-08-25T11:20:57.186Z,61.12
2018-08-25T11:21:56.931Z,61
2018-08-25T11:22:56.809Z,61.35
2018-08-25T11:23:56.979Z,61.11
2018-08-25T11:24:56.981Z,60.88
2018-08-25T11:25:56.725Z,60.97
2018-08-25T11:26:56.742Z,61.46
2018-08-25T11:27:56.837Z,60.84
2018-08-25T11:28:56.884Z,60.79
2018-08-25T11:29:57.104Z,60.52
2018-08-25T11:30:56.846Z,60.51
2018-08-25T11:31:56.920Z,60.07
2018-08-25T11:32:56.851Z,60.04
2018-08-25T11:33:57.007Z,60.25
2018-08-25T11:34:56.882Z,60.2
2018-08-25T11:35:56.736Z,59.97
2018-08-25T11:36:56.745Z,59.96
2018-08-25T11:38:06.849Z,59.98
2018-08-25T11:39:06.877Z,59.77
2018-08-25T11:40:06.793Z,59.47
2018-08-25T11:41:06.833Z,60.52
2018-08-25T11:42:06.621Z,60.29
2018-08-25T11:43:06.789Z,60.47
2018-08-25T11:44:07.037Z,61.11
2018-08-25T11:45:06.650Z,60.66
2018-08-25T11:46:06.639Z,60.51
2018-08-25T11:47:06.690Z,60.71
2018-08-25T11:48:06.867Z,60.48
2018-08-25T11:49:06.711Z,60.43
2018-08-25T11:50:06.637Z,60.83
2018-08-25T11:51:06.580Z,60.56
2018-08-25T11:52:06.607Z,60.41
2018-08-25T11:53:06.619Z,60.4
2018-08-25T11:54:25.878Z,60.38
2018-08-25T11:55:25.895Z,60.7
2018-08-25T11:56:26.012Z,60.6
2018-08-25T11:57:25.046Z,60.82
2018-08-25T11:58:25.107Z,61.07
2018-08-25T11:59:24.993Z,60.89
2018-08-25T12:00:25.100Z,61.04
2018-08-25T12:01:25.159Z,61.26
2018-08-25T12:02:27.968Z,61
2018-08-25T12:03:25.146Z,61.47
2018-08-25T12:04:25.162Z,61.35
2018-08-25T12:05:25.180Z,61.12
2018-08-25T12:06:25.265Z,61.32
2018-08-25T12:07:25.222Z,61.28
2018-08-25T12:08:25.492Z,61.32
2018-08-25T12:09:25.506Z,61.33
2018-08-25T12:10:24.927Z,61.19
2018-08-25T12:11:25.172Z,61.14
2018-08-25T12:12:25.150Z,61.25
2018-08-25T12:13:25.128Z,61.09
2018-08-25T12:14:25.063Z,61.57
2018-08-25T12:15:25.190Z,61.4
2018-08-25T12:16:25.327Z,61.56
2018-08-25T12:17:25.278Z,61.27
2018-08-25T12:18:25.639Z,61.3
2018-08-25T12:19:25.277Z,61.4
2018-08-25T12:20:25.109Z,61.55
2018-08-25T12:21:24.950Z,61.22
2018-08-25T12:22:25.040Z,61.45
2018-08-25T12:23:25.085Z,61.83
2018-08-25T12:24:25.345Z,61.71
2018-08-25T12:25:25.272Z,61.43
2018-08-25T12:26:25.353Z,61.63
2018-08-25T12:27:25.110Z,61.71
2018-08-25T12:28:25.396Z,61.41
2018-08-25T12:29:25.440Z,61.99
2018-08-25T12:30:25.320Z,62.55
2018-08-25T12:31:25.270Z,62.64
2018-08-25T12:32:25.243Z,62.5
2018-08-25T12:33:25.440Z,62.38
2018-08-25T12:34:25.530Z,63.06
2018-08-25T12:35:25.298Z,63.16
2018-08-25T12:36:25.466Z,63.37
2018-08-25T12:37:25.433Z,63.95
2018-08-25T12:38:25.196Z,64.51
2018-08-25T12:39:25.679Z,64.22
2018-08-25T12:40:25.354Z,64.71
2018-08-25T12:41:25.437Z,64.28
2018-08-25T12:42:25.572Z,64.72
2018-08-25T12:43:25.377Z,64.46
2018-08-25T12:44:25.112Z,65.25
2018-08-25T12:45:25.422Z,65.39
2018-08-25T12:46:25.304Z,65.13
2018-08-25T12:47:25.349Z,65.06
2018-08-25T12:48:25.682Z,65.13
2018-08-25T12:49:25.457Z,64.98
2018-08-25T12:50:25.362Z,64.88
2018-08-25T12:51:25.325Z,64.71
2018-08-25T12:52:25.239Z,64.32
2018-08-25T12:53:25.417Z,64.59
2018-08-25T12:54:25.109Z,65.08
2018-08-25T12:55:25.493Z,65.16
2018-08-25T12:56:25.418Z,65.67
2018-08-25T12:57:25.209Z,65.16
2018-08-25T12:58:25.244Z,65.98
2018-08-25T12:59:25.264Z,65.93
2018-08-25T13:00:25.285Z,65.61
2018-08-25T13:01:25.253Z,65.46
2018-08-25T13:02:25.299Z,65.32
2018-08-25T13:03:25.121Z,65.45
2018-08-25T13:04:25.399Z,65.5
2018-08-25T13:05:25.373Z,64.83
2018-08-25T13:06:25.218Z,64.76
2018-08-25T13:07:25.374Z,64.88
2018-08-25T13:08:25.272Z,64.7
2018-08-25T13:09:25.164Z,64.55
2018-08-25T13:10:25.200Z,64.65
2018-08-25T13:11:25.198Z,66.17
2018-08-25T13:12:25.338Z,65.42
2018-08-25T13:13:25.304Z,65.04